createdAt,value
2023-03-04T00:02:31.948Z,2.36
2023-03-04T00:07:33.250Z,2.27
2023-03-04T00:12:34.901Z,2.24
2023-03-04T00:17:36.458Z,2.22
2023-03-04T00:22:38.334Z,2.18
2023-03-04T00:27:40.095Z,2.1
2023-03-04T00:32:41.424Z,2.07
2023-03-04T00:37:42.736Z,2.06
2023-03-04T00:42:44.889Z,2.05
2023-03-04T00:47:46.953Z,2.01
2023-03-04T00:52:48.879Z,1.93
2023-03-04T00:57:50.467Z,1.92
2023-03-04T01:02:52.415Z,1.91
2023-03-04T01:07:53.870Z,1.84
2023-03-04T01:12:55.968Z,1.76
2023-03-04T01:17:58.093Z,1.68
2023-03-04T01:22:59.525Z,1.69
2023-03-04T01:28:01.217Z,1.65
2023-03-04T01:33:02.914Z,1.58
2023-03-04T01:38:05.210Z,1.55
2023-03-04T01:43:06.469Z,1.55
2023-03-04T01:48:08.213Z,1.49
2023-03-04T01:53:10.390Z,1.4
2023-03-04T01:58:11.742Z,1.38
2023-03-04T02:03:13.070Z,1.34
2023-03-04T02:08:14.377Z,1.31
2023-03-04T02:13:15.947Z,1.2
2023-03-04T02:18:19.108Z,1.16
2023-03-04T02:23:19.220Z,1.2
2023-03-04T02:28:21.234Z,1.21
2023-03-04T02:33:23.469Z,1.15
2023-03-04T02:38:24.922Z,1.11
2023-03-04T02:48:27.919Z,1.08
2023-03-04T02:53:29.985Z,0.97
2023-03-04T02:58:31.747Z,0.93
2023-03-04T03:03:33.889Z,0.91
2023-03-04T03:08:35.180Z,0.91
2023-03-04T03:13:37.133Z,0.8
2023-03-04T03:18:38.798Z,0.72
2023-03-04T03:23:40.154Z,0.7
2023-03-04T03:28:42.085Z,0.69
2023-03-04T03:33:43.535Z,0.6
2023-03-04T03:38:45.506Z,0.52
2023-03-04T03:43:47.565Z,0.52
2023-03-04T03:48:49.690Z,0.55
2023-03-04T03:53:51.386Z,0.51
2023-03-04T03:58:53.515Z,0.44
2023-03-04T04:03:55.340Z,0.42
2023-03-04T04:08:57.129Z,0.4
2023-03-04T04:13:58.956Z,0.37
2023-03-04T04:19:00.437Z,0.29
2023-03-04T04:24:02.506Z,0.25
2023-03-04T04:29:03.824Z,0.23
2023-03-04T04:34:05.066Z,0.2
2023-03-04T04:39:06.435Z,0.14
2023-03-04T04:44:08.561Z,0.11
2023-03-04T04:49:09.889Z,0.08
2023-03-04T04:54:11.583Z,0.11
2023-03-04T04:59:13.644Z,0.06
2023-03-04T05:04:15.699Z,0.03
2023-03-04T05:09:17.605Z,0.03
2023-03-04T05:14:19.185Z,0.07
2023-03-04T05:19:20.432Z,0.09
2023-03-04T05:24:21.790Z,0.01
2023-03-04T05:29:23.267Z,0.03
2023-03-04T05:34:25.476Z,0.06
2023-03-04T05:39:27.085Z,0.02
2023-03-04T05:44:28.357Z,-0.06
2023-03-04T05:49:30.421Z,-0.04
2023-03-04T05:54:32.080Z,-0.02
2023-03-04T05:59:33.594Z,0.01
2023-03-04T06:04:35.782Z,-0.01
2023-03-04T06:09:37.457Z,0
2023-03-04T06:14:38.866Z,0.06
2023-03-04T06:19:40.507Z,0.16
2023-03-04T06:24:41.854Z,0.21
2023-03-04T06:29:43.696Z,0.28
2023-03-04T06:34:45.155Z,0.39
2023-03-04T06:44:48.464Z,0.71
2023-03-04T06:59:54.005Z,1.76
2023-03-04T07:14:58.643Z,2.76
2023-03-04T07:30:03.989Z,3.4
2023-03-04T07:40:06.781Z,4.11
2023-03-04T07:45:08.712Z,4.44
2023-03-04T07:55:12.277Z,5.3
2023-03-04T08:00:13.845Z,6.18
2023-03-04T08:05:15.663Z,7.11
2023-03-04T08:10:18.037Z,7.72
2023-03-04T08:15:19.580Z,8.28
2023-03-04T08:20:21.400Z,9.24
2023-03-04T08:25:23.331Z,9.96
2023-03-04T08:30:25.267Z,10.58
2023-03-04T08:35:26.806Z,11.39
2023-03-04T08:40:28.790Z,11.56
2023-03-04T08:45:30.675Z,11.89
2023-03-04T08:50:32.817Z,11.75
2023-03-04T08:55:33.744Z,12.16
2023-03-04T09:00:35.611Z,12.62
2023-03-04T09:05:37.333Z,13.01
2023-03-04T09:10:38.764Z,13.63
2023-03-04T09:15:40.930Z,13.97
2023-03-04T09:20:42.811Z,14.88
2023-03-04T09:25:44.708Z,14.82
2023-03-04T09:25:51.030Z,14.85
2023-03-04T09:30:52.755Z,15.76
2023-03-04T09:35:54.384Z,16.39
2023-03-04T09:40:56.502Z,16.56
2023-03-04T09:46:08.534Z,16.58
2023-03-04T09:51:00.207Z,16.79
2023-03-04T09:56:01.415Z,17.28
2023-03-04T10:01:05.176Z,17.54
2023-03-04T10:06:04.984Z,17.71
2023-03-04T10:11:06.847Z,18.04
2023-03-04T10:16:08.299Z,18.11
2023-03-04T10:21:09.739Z,17.78
2023-03-04T10:26:11.284Z,18.19
2023-03-04T10:31:13.363Z,17.51
2023-03-04T10:36:14.574Z,17.45
2023-03-04T10:41:16.172Z,17.28
2023-03-04T10:46:17.583Z,17.33
2023-03-04T10:51:19.633Z,17.17
2023-03-04T10:56:21.493Z,16.01
2023-03-04T11:01:23.545Z,16.42
2023-03-04T11:06:25.469Z,16.74
2023-03-04T11:11:27.391Z,17.12
2023-03-04T11:16:28.653Z,16.62
2023-03-04T11:21:30.049Z,16.6
2023-03-04T11:26:31.692Z,16.87
2023-03-04T11:31:33.715Z,16.16
2023-03-04T11:36:35.309Z,15.72
2023-03-04T11:41:37.455Z,15.5
2023-03-04T11:46:38.876Z,14.21
2023-03-04T11:51:41.070Z,12.67
2023-03-04T11:56:42.532Z,12.14
2023-03-04T12:01:44.637Z,11.44
2023-03-04T12:06:45.968Z,11.35
2023-03-04T12:11:47.145Z,10.7
2023-03-04T12:16:48.684Z,9.97
2023-03-04T12:21:49.981Z,9.43
2023-03-04T12:26:51.969Z,8.93
2023-03-04T12:31:53.752Z,8.75
2023-03-04T12:36:54.979Z,8.46
2023-03-04T12:41:56.731Z,8.24
2023-03-04T12:46:58.277Z,7.85
2023-03-04T12:51:59.739Z,7.1
2023-03-04T12:57:00.987Z,6.96
2023-03-04T13:02:04.449Z,6.73
2023-03-04T13:07:04.158Z,6.72
2023-03-04T13:12:06.173Z,6.73
2023-03-04T13:17:07.653Z,6.73
2023-03-04T13:22:09.634Z,6.61
2023-03-04T13:27:20.948Z,6.29
2023-03-04T13:32:12.998Z,6.39
2023-03-04T13:37:15.008Z,6.38
2023-03-04T13:42:16.498Z,6.24
2023-03-04T13:47:18.019Z,6.12
2023-03-04T13:52:19.261Z,5.91
2023-03-04T13:57:21.329Z,5.84
2023-03-04T14:02:23.405Z,5.55
2023-03-04T14:07:24.746Z,5.44
2023-03-04T14:12:26.562Z,5.4
2023-03-04T14:17:28.245Z,5.38
2023-03-04T14:22:29.856Z,5.19
2023-03-04T14:27:31.013Z,4.91
2023-03-04T14:32:32.996Z,4.77
2023-03-04T14:37:34.809Z,4.5
2023-03-04T14:42:36.845Z,4.44
2023-03-04T14:47:38.807Z,4.42
2023-03-04T14:52:40.358Z,4.48
2023-03-04T14:57:41.618Z,4.46
2023-03-04T15:02:43.095Z,4.42
2023-03-04T15:07:44.368Z,4.39
2023-03-04T15:12:45.968Z,4.33
2023-03-04T15:17:47.533Z,4.17
2023-03-04T15:22:49.230Z,4.12
2023-03-04T15:27:51.103Z,4
2023-03-04T15:32:52.983Z,3.76
2023-03-04T15:37:54.322Z,3.58
2023-03-04T15:42:56.407Z,3.49
2023-03-04T15:47:58.492Z,3.41
2023-03-04T15:52:59.909Z,3.36
2023-03-04T15:58:01.486Z,3.18
2023-03-04T16:03:03.512Z,3.09
2023-03-04T16:08:05.724Z,2.98
2023-03-04T16:13:07.787Z,2.84
2023-03-04T16:18:10.460Z,2.58
2023-03-04T16:23:11.852Z,2.45
2023-03-04T16:28:23.926Z,2.38
2023-03-04T16:33:15.371Z,2.33
2023-03-04T16:38:17.234Z,2.22
2023-03-04T16:43:18.897Z,2.15
2023-03-04T16:48:20.766Z,2.1
2023-03-04T16:53:22.668Z,2.07
2023-03-04T16:58:24.794Z,1.98
2023-03-04T17:03:26.063Z,1.93
2023-03-04T17:08:27.825Z,1.82
2023-03-04T17:13:29.274Z,1.72
2023-03-04T17:18:30.674Z,1.67
2023-03-04T17:23:31.901Z,1.65
2023-03-04T17:28:33.846Z,1.65
2023-03-04T17:33:35.293Z,1.58
2023-03-04T17:38:37.204Z,1.38
2023-03-04T17:43:39.081Z,1.34
2023-03-04T17:48:40.814Z,1.37
2023-03-04T17:53:42.438Z,1.37
2023-03-04T17:58:44.481Z,1.3
2023-03-04T18:03:46.063Z,1.33
2023-03-04T18:08:47.537Z,1.4
2023-03-04T18:13:48.794Z,1.45
2023-03-04T18:18:50.027Z,1.4
2023-03-04T18:23:51.914Z,1.33
2023-03-04T18:28:54.043Z,1.37
2023-03-04T18:33:56.172Z,1.42
2023-03-04T18:38:57.405Z,1.39
2023-03-04T18:43:59.106Z,1.38
2023-03-04T18:49:00.804Z,1.42
2023-03-04T18:54:02.548Z,1.45
2023-03-04T18:59:03.900Z,1.36
2023-03-04T19:04:05.482Z,1.34
2023-03-04T19:09:06.853Z,1.36
2023-03-04T19:14:08.294Z,1.41
2023-03-04T19:19:09.854Z,1.44
2023-03-04T19:24:11.171Z,1.44
2023-03-04T19:29:13.408Z,1.48
2023-03-04T19:34:15.199Z,1.55
2023-03-04T19:39:16.942Z,1.58
2023-03-04T19:44:18.484Z,1.58
2023-03-04T19:49:20.412Z,1.58
2023-03-04T19:54:22.538Z,1.65
2023-03-04T19:59:24.376Z,1.66
2023-03-04T20:04:25.902Z,1.64
2023-03-04T20:09:28.019Z,1.68
2023-03-04T20:14:29.362Z,1.76
2023-03-04T20:19:31.472Z,1.69
2023-03-04T20:24:33.479Z,1.67
2023-03-04T20:29:35.256Z,1.68
2023-03-04T20:34:37.047Z,1.72
2023-03-04T20:39:38.628Z,1.72
2023-03-04T20:44:39.735Z,1.66
2023-03-04T20:49:41.746Z,1.69
2023-03-04T20:54:43.224Z,1.74
2023-03-04T21:14:50.068Z,1.64
2023-03-04T21:34:58.469Z,1.59
2023-03-04T21:44:59.858Z,1.55
2023-03-04T22:00:06.296Z,1.47
2023-03-04T22:05:05.828Z,1.39
2023-03-04T22:10:07.829Z,1.34
2023-03-04T22:20:11.836Z,1.34
2023-03-04T22:25:12.692Z,1.3
2023-03-04T22:30:15.949Z,1.26
2023-03-04T22:35:15.624Z,1.25
2023-03-04T22:40:17.515Z,1.28
2023-03-04T22:45:19.431Z,1.25
2023-03-04T22:50:20.832Z,1.21
2023-03-04T22:55:22.683Z,1.23
2023-03-04T23:11:45.275Z,1.15
2023-03-04T23:15:30.183Z,1.16
2023-03-04T23:20:31.391Z,1.2
2023-03-04T23:25:33.204Z,1.19
2023-03-04T23:30:34.862Z,1.09
2023-03-04T23:35:36.719Z,1.11
2023-03-04T23:40:38.670Z,1.12
2023-03-04T23:45:40.536Z,1.09
2023-03-04T23:50:41.986Z,1.05
2023-03-04T23:55:43.348Z,1.05
